createdAt,value
2023-03-15T00:00:26.879Z,36.76
2023-03-15T00:00:58.294Z,36.89
2023-03-15T00:01:29.718Z,36.89
2023-03-15T00:02:01.273Z,37.01
2023-03-15T00:02:32.838Z,37.28
2023-03-15T00:03:04.331Z,37.28
2023-03-15T00:03:35.776Z,37.00
2023-03-15T00:04:07.265Z,37.36
2023-03-15T00:04:38.684Z,37.02
2023-03-15T00:05:10.095Z,37.56
2023-03-15T00:05:41.534Z,36.86
2023-03-15T00:06:12.953Z,37.00
2023-03-15T00:06:44.352Z,37.03
2023-03-15T00:07:15.773Z,37.03
2023-03-15T00:07:47.172Z,36.99
2023-03-15T00:08:18.578Z,37.23
2023-03-15T00:08:49.974Z,37.03
2023-03-15T00:09:21.418Z,37.10
2023-03-15T00:09:52.820Z,37.14
2023-03-15T00:10:24.237Z,37.34
2023-03-15T00:10:55.651Z,36.76
2023-03-15T00:11:27.050Z,36.85
2023-03-15T00:11:58.456Z,37.30
2023-03-15T00:12:29.868Z,37.25
2023-03-15T00:13:01.293Z,37.14
2023-03-15T00:13:32.700Z,36.99
2023-03-15T00:14:04.097Z,36.97
2023-03-15T00:14:35.529Z,36.99
2023-03-15T00:15:06.927Z,36.73
2023-03-15T00:15:38.356Z,36.73
2023-03-15T00:16:09.846Z,37.03
2023-03-15T00:16:41.251Z,37.04
2023-03-15T00:17:12.647Z,37.05
2023-03-15T00:17:44.068Z,37.33
2023-03-15T00:18:15.467Z,36.82
2023-03-15T00:18:46.892Z,36.91
2023-03-15T00:19:18.328Z,36.88
2023-03-15T00:19:49.807Z,37.41
2023-03-15T00:20:21.204Z,37.01
2023-03-15T00:20:52.626Z,37.27
2023-03-15T00:21:24.040Z,37.07
2023-03-15T00:21:55.464Z,37.39
2023-03-15T00:22:26.849Z,37.00
2023-03-15T00:22:58.260Z,37.33
2023-03-15T00:23:29.675Z,37.07
2023-03-15T00:24:01.066Z,37.17
2023-03-15T00:24:32.593Z,36.81
2023-03-15T00:25:04.033Z,37.00
2023-03-15T00:25:35.444Z,36.92
2023-03-15T00:26:06.879Z,37.10
2023-03-15T00:26:38.275Z,37.54
2023-03-15T00:27:09.674Z,37.02
2023-03-15T00:27:41.071Z,37.27
2023-03-15T00:28:12.481Z,37.10
2023-03-15T00:28:43.879Z,36.60
2023-03-15T00:29:15.299Z,37.29
2023-03-15T00:29:46.708Z,37.37
2023-03-15T00:30:18.269Z,37.06
2023-03-15T00:30:49.733Z,36.82
2023-03-15T00:31:21.274Z,37.10
2023-03-15T00:31:52.717Z,37.15
2023-03-15T00:32:24.131Z,37.02
2023-03-15T00:32:55.603Z,37.41
2023-03-15T00:33:27.078Z,37.39
2023-03-15T00:33:58.481Z,37.02
2023-03-15T00:34:29.883Z,37.46
2023-03-15T00:35:01.382Z,37.20
2023-03-15T00:35:32.811Z,37.02
2023-03-15T00:36:04.258Z,36.97
2023-03-15T00:36:35.711Z,37.12
2023-03-15T00:37:07.111Z,36.95
2023-03-15T00:37:38.520Z,37.28
2023-03-15T00:38:09.938Z,37.18
2023-03-15T00:38:41.340Z,37.05
2023-03-15T00:39:12.740Z,37.14
2023-03-15T00:39:44.160Z,37.30
2023-03-15T00:40:15.564Z,37.27
2023-03-15T00:40:46.995Z,37.07
2023-03-15T00:41:18.420Z,37.27
2023-03-15T00:41:49.856Z,37.22
2023-03-15T00:42:21.243Z,36.94
2023-03-15T00:42:52.642Z,37.13
2023-03-15T00:43:24.048Z,36.83
2023-03-15T00:43:55.479Z,37.12
2023-03-15T00:44:26.865Z,37.40
2023-03-15T00:44:58.264Z,37.00
2023-03-15T00:45:29.679Z,37.41
2023-03-15T00:46:01.169Z,37.15
2023-03-15T00:46:32.628Z,37.48
2023-03-15T00:47:04.047Z,36.92
2023-03-15T00:47:35.450Z,37.55
2023-03-15T00:48:06.867Z,37.61
2023-03-15T00:48:38.272Z,37.30
2023-03-15T00:49:09.685Z,37.42
2023-03-15T00:49:41.084Z,37.09
2023-03-15T00:50:12.814Z,37.43
2023-03-15T00:50:44.210Z,37.33
2023-03-15T00:51:15.662Z,37.19
2023-03-15T00:51:47.069Z,37.48
2023-03-15T00:52:18.459Z,37.28
2023-03-15T00:52:49.851Z,37.41
2023-03-15T00:53:21.279Z,37.45
2023-03-15T00:53:52.691Z,37.39
2023-03-15T00:54:24.121Z,37.50
2023-03-15T00:54:55.939Z,37.58
2023-03-15T00:55:27.398Z,37.24
2023-03-15T00:55:58.939Z,37.01
2023-03-15T00:56:30.370Z,37.58
2023-03-15T00:57:01.774Z,37.00
2023-03-15T00:57:33.193Z,37.45
2023-03-15T00:58:04.606Z,37.24
2023-03-15T00:58:36.094Z,37.37
2023-03-15T00:59:07.506Z,37.82
2023-03-15T00:59:38.975Z,37.68
2023-03-15T01:00:10.388Z,37.17
2023-03-15T01:00:41.808Z,37.82
2023-03-15T01:01:13.207Z,37.55
2023-03-15T01:01:44.902Z,37.11
2023-03-15T01:02:16.483Z,37.85
2023-03-15T01:02:47.930Z,37.38
2023-03-15T01:03:19.353Z,37.46
2023-03-15T01:03:50.775Z,37.24
2023-03-15T01:04:22.186Z,37.45
2023-03-15T01:04:53.584Z,37.50
2023-03-15T01:05:24.983Z,37.81
2023-03-15T01:05:56.408Z,37.69
2023-03-15T01:06:27.798Z,37.26
2023-03-15T01:06:59.263Z,37.39
2023-03-15T01:07:30.659Z,37.64
2023-03-15T01:08:02.079Z,37.13
2023-03-15T01:08:33.486Z,37.14
2023-03-15T01:09:04.896Z,37.21
2023-03-15T01:09:36.292Z,37.83
2023-03-15T01:10:07.720Z,37.72
2023-03-15T01:10:39.146Z,37.39
2023-03-15T01:11:10.556Z,37.34
2023-03-15T01:11:41.986Z,37.38
2023-03-15T01:12:13.426Z,37.65
2023-03-15T01:12:44.868Z,37.46
2023-03-15T01:13:16.307Z,37.26
2023-03-15T01:13:47.728Z,37.22
2023-03-15T01:14:19.131Z,37.67
2023-03-15T01:14:50.543Z,37.03
2023-03-15T01:15:21.944Z,37.70
2023-03-15T01:15:53.389Z,37.14
2023-03-15T01:16:24.920Z,37.41
2023-03-15T01:16:56.363Z,37.42
2023-03-15T01:17:27.780Z,37.39
2023-03-15T01:17:59.179Z,37.04
2023-03-15T01:18:30.587Z,37.41
2023-03-15T01:19:01.992Z,37.52
2023-03-15T01:19:33.387Z,37.48
2023-03-15T01:20:04.802Z,37.28
2023-03-15T01:20:36.230Z,37.48
2023-03-15T01:21:07.690Z,37.43
2023-03-15T01:21:39.120Z,37.32
2023-03-15T01:22:10.526Z,37.20
2023-03-15T01:22:41.968Z,37.42
2023-03-15T01:23:13.389Z,37.46
2023-03-15T01:23:44.780Z,37.66
2023-03-15T01:24:16.221Z,37.01
2023-03-15T01:24:47.623Z,37.29
2023-03-15T01:25:19.035Z,37.59
2023-03-15T01:25:50.452Z,37.71
2023-03-15T01:26:21.848Z,37.45
2023-03-15T01:26:53.234Z,37.13
2023-03-15T01:27:24.627Z,37.10
2023-03-15T01:27:56.071Z,37.50
2023-03-15T01:28:27.479Z,37.15
2023-03-15T01:28:58.940Z,37.62
2023-03-15T01:29:30.374Z,37.33
2023-03-15T01:30:01.795Z,37.18
2023-03-15T01:30:33.188Z,37.65
2023-03-15T01:31:04.632Z,37.46
2023-03-15T01:31:36.112Z,37.38
2023-03-15T01:32:07.567Z,37.28
2023-03-15T01:32:39.137Z,37.26
2023-03-15T01:33:10.608Z,37.74
2023-03-15T01:33:42.013Z,37.35
2023-03-15T01:34:13.419Z,37.70
2023-03-15T01:34:44.860Z,37.50
2023-03-15T01:35:16.272Z,37.54
2023-03-15T01:35:47.711Z,37.55
2023-03-15T01:36:19.126Z,37.20
2023-03-15T01:36:50.547Z,37.08
2023-03-15T01:37:21.948Z,37.25
2023-03-15T01:37:53.378Z,37.21
2023-03-15T01:38:24.819Z,37.02
2023-03-15T01:38:56.238Z,37.24
2023-03-15T01:39:27.631Z,37.49
2023-03-15T01:39:59.067Z,36.99
2023-03-15T01:40:30.455Z,37.25
2023-03-15T01:41:01.867Z,37.55
2023-03-15T01:41:33.278Z,37.17
2023-03-15T01:42:04.686Z,37.68
2023-03-15T01:42:36.086Z,37.72
2023-03-15T01:43:07.489Z,37.80
2023-03-15T01:43:38.946Z,37.48
2023-03-15T01:44:10.349Z,37.51
2023-03-15T01:44:41.744Z,37.33
2023-03-15T01:45:13.217Z,37.35
2023-03-15T01:45:44.626Z,37.41
2023-03-15T01:46:16.097Z,37.56
2023-03-15T01:46:47.651Z,37.25
2023-03-15T01:47:19.117Z,37.26
2023-03-15T01:47:50.578Z,37.44
2023-03-15T01:48:21.966Z,37.25
2023-03-15T01:48:53.403Z,37.63
2023-03-15T01:49:24.800Z,37.41
2023-03-15T01:49:56.220Z,37.41
2023-03-15T01:50:27.651Z,37.67
2023-03-15T01:50:59.074Z,37.34
2023-03-15T01:51:30.483Z,37.48
2023-03-15T01:52:01.883Z,37.32
2023-03-15T01:52:33.301Z,37.60
2023-03-15T01:53:04.713Z,37.34
2023-03-15T01:53:36.135Z,37.02
2023-03-15T01:54:07.562Z,37.68
2023-03-15T01:54:38.977Z,37.03
2023-03-15T01:55:10.416Z,37.27
2023-03-15T01:55:41.824Z,37.68
2023-03-15T01:56:13.250Z,37.63
2023-03-15T01:56:44.683Z,37.66
2023-03-15T01:57:16.073Z,37.74
2023-03-15T01:57:47.467Z,37.35
2023-03-15T01:58:18.857Z,37.27
2023-03-15T01:58:50.251Z,37.36
2023-03-15T01:59:21.657Z,37.33
2023-03-15T01:59:53.080Z,37.44
2023-03-15T02:00:24.529Z,37.56
2023-03-15T02:00:55.983Z,37.53
2023-03-15T02:01:27.419Z,37.70
2023-03-15T02:01:58.888Z,37.31
2023-03-15T02:02:30.362Z,37.44
2023-03-15T02:03:01.782Z,37.17
2023-03-15T02:03:33.183Z,37.38
2023-03-15T02:04:04.587Z,37.38
2023-03-15T02:04:36.006Z,37.00
2023-03-15T02:05:07.423Z,37.49
2023-03-15T02:05:38.859Z,37.64
2023-03-15T02:06:10.277Z,37.36
2023-03-15T02:06:41.691Z,37.39
2023-03-15T02:07:13.077Z,37.61
2023-03-15T02:07:44.476Z,37.50
2023-03-15T02:08:15.881Z,37.22
2023-03-15T02:08:47.390Z,37.30
2023-03-15T02:09:18.788Z,37.08
2023-03-15T02:09:50.251Z,37.41
2023-03-15T02:10:21.675Z,37.25
2023-03-15T02:10:53.106Z,37.54
2023-03-15T02:11:24.501Z,37.39
2023-03-15T02:11:55.908Z,37.64
2023-03-15T02:12:27.294Z,37.79
2023-03-15T02:12:58.705Z,37.21
2023-03-15T02:13:30.127Z,37.28
2023-03-15T02:14:01.516Z,37.40
2023-03-15T02:14:32.908Z,37.34
2023-03-15T02:15:04.342Z,37.69
2023-03-15T02:15:35.766Z,37.51
2023-03-15T02:16:07.246Z,37.35
2023-03-15T02:16:38.788Z,37.39
2023-03-15T02:17:10.210Z,37.35
2023-03-15T02:17:41.612Z,37.73
2023-03-15T02:18:13.009Z,37.38
2023-03-15T02:18:44.398Z,37.22
2023-03-15T02:19:15.788Z,37.34
2023-03-15T02:19:47.209Z,37.10
2023-03-15T02:20:18.653Z,37.42
2023-03-15T02:20:50.073Z,37.00
2023-03-15T02:21:21.513Z,37.28
2023-03-15T02:21:52.933Z,37.18
2023-03-15T02:22:24.349Z,37.62
2023-03-15T02:22:55.771Z,37.39
2023-03-15T02:23:27.188Z,37.03
2023-03-15T02:23:58.578Z,37.29
2023-03-15T02:24:30.005Z,37.63
2023-03-15T02:25:01.437Z,37.04
2023-03-15T02:25:32.852Z,37.21
2023-03-15T02:26:04.252Z,37.46
2023-03-15T02:26:35.711Z,37.32
2023-03-15T02:27:07.197Z,36.99
2023-03-15T02:27:38.728Z,37.42
2023-03-15T02:28:10.171Z,37.54
2023-03-15T02:28:41.566Z,37.35
2023-03-15T02:29:12.983Z,37.54
2023-03-15T02:29:44.373Z,37.18
2023-03-15T02:30:15.796Z,37.10
2023-03-15T02:30:47.233Z,37.33
2023-03-15T02:31:18.703Z,37.31
2023-03-15T02:31:50.189Z,37.59
2023-03-15T02:32:21.660Z,37.15
2023-03-15T02:32:53.198Z,37.21
2023-03-15T02:33:24.626Z,37.37
2023-03-15T02:33:56.017Z,37.34
2023-03-15T02:34:27.423Z,37.06
2023-03-15T02:34:58.823Z,37.04
2023-03-15T02:35:30.229Z,37.32
2023-03-15T02:36:01.729Z,36.94
2023-03-15T02:36:33.144Z,37.40
2023-03-15T02:37:04.564Z,37.59
2023-03-15T02:37:35.967Z,36.95
2023-03-15T02:38:07.363Z,37.24
2023-03-15T02:38:38.891Z,36.99
2023-03-15T02:39:10.283Z,37.23
2023-03-15T02:39:41.701Z,37.15
2023-03-15T02:40:13.095Z,37.31
2023-03-15T02:40:44.490Z,37.03
2023-03-15T02:41:15.942Z,37.22
2023-03-15T02:41:47.347Z,37.00
2023-03-15T02:42:18.744Z,37.35
2023-03-15T02:42:50.136Z,37.37
2023-03-15T02:43:21.622Z,37.57
2023-03-15T02:43:53.020Z,37.56
2023-03-15T02:44:24.417Z,37.10
2023-03-15T02:44:55.844Z,36.99
2023-03-15T02:45:27.261Z,37.20
2023-03-15T02:45:58.674Z,37.49
2023-03-15T02:46:30.148Z,37.54
2023-03-15T02:47:01.566Z,36.93
2023-03-15T02:47:33.004Z,37.02
2023-03-15T02:48:04.577Z,37.32
2023-03-15T02:48:36.000Z,37.16
2023-03-15T02:49:07.401Z,37.53
2023-03-15T02:49:38.833Z,37.15
2023-03-15T02:50:10.231Z,37.40
2023-03-15T02:50:41.638Z,37.33
2023-03-15T02:51:13.049Z,37.34
2023-03-15T02:51:44.496Z,36.95
2023-03-15T02:52:15.894Z,37.46
2023-03-15T02:52:47.305Z,37.13
2023-03-15T02:53:18.710Z,36.98
2023-03-15T02:53:50.120Z,37.21
2023-03-15T02:54:21.514Z,36.98
2023-03-15T02:54:52.929Z,36.92
2023-03-15T02:55:24.346Z,37.21
2023-03-15T02:55:55.738Z,37.21
2023-03-15T02:56:27.135Z,37.21
2023-03-15T02:56:58.570Z,37.45
2023-03-15T02:57:29.965Z,37.08
2023-03-15T02:58:01.379Z,36.97
2023-03-15T02:58:32.775Z,37.43
2023-03-15T02:59:04.173Z,37.50
2023-03-15T02:59:35.580Z,37.22
2023-03-15T03:00:06.995Z,37.31
2023-03-15T03:00:38.407Z,36.97
2023-03-15T03:01:09.844Z,37.53
2023-03-15T03:01:41.290Z,37.03
2023-03-15T03:02:12.803Z,37.43
2023-03-15T03:02:44.305Z,37.20
2023-03-15T03:03:15.725Z,37.40
2023-03-15T03:03:47.147Z,36.99
2023-03-15T03:04:18.550Z,37.03
2023-03-15T03:04:49.961Z,37.01
2023-03-15T03:05:21.377Z,37.41
2023-03-15T03:05:52.782Z,36.92
2023-03-15T03:06:24.179Z,37.58
2023-03-15T03:06:55.596Z,37.07
2023-03-15T03:07:27.033Z,36.99
2023-03-15T03:07:58.452Z,36.86
2023-03-15T03:08:29.842Z,37.41
2023-03-15T03:09:01.243Z,37.07
2023-03-15T03:09:32.662Z,37.09
2023-03-15T03:10:04.055Z,37.41
2023-03-15T03:10:35.459Z,37.37
2023-03-15T03:11:06.879Z,37.17
2023-03-15T03:11:38.281Z,37.25
2023-03-15T03:12:09.721Z,37.25
2023-03-15T03:12:41.221Z,37.02
2023-03-15T03:13:12.613Z,36.93
2023-03-15T03:13:44.044Z,37.41
2023-03-15T03:14:15.460Z,37.44
2023-03-15T03:14:46.861Z,37.45
2023-03-15T03:15:18.285Z,37.10
2023-03-15T03:15:49.706Z,37.34
2023-03-15T03:16:21.125Z,37.58
2023-03-15T03:16:52.590Z,37.27
2023-03-15T03:17:24.041Z,37.29
2023-03-15T03:17:55.487Z,37.49
2023-03-15T03:18:26.884Z,37.33
2023-03-15T03:18:58.308Z,37.43
2023-03-15T03:19:29.694Z,37.08
2023-03-15T03:20:01.092Z,37.05
2023-03-15T03:20:32.500Z,37.26
2023-03-15T03:21:03.905Z,37.02
2023-03-15T03:21:35.297Z,37.22
2023-03-15T03:22:06.874Z,37.56
2023-03-15T03:22:38.320Z,37.31
2023-03-15T03:23:09.752Z,37.35
2023-03-15T03:23:41.167Z,37.13
2023-03-15T03:24:12.573Z,37.25
2023-03-15T03:24:43.958Z,36.90
2023-03-15T03:25:15.399Z,37.65
2023-03-15T03:25:46.800Z,37.07
2023-03-15T03:26:18.224Z,37.58
2023-03-15T03:26:49.612Z,37.55
2023-03-15T03:27:21.026Z,37.39
2023-03-15T03:27:52.462Z,37.16
2023-03-15T03:28:23.868Z,37.38
2023-03-15T03:28:55.260Z,37.44
2023-03-15T03:29:26.678Z,36.93
2023-03-15T03:29:58.095Z,37.00
2023-03-15T03:30:29.571Z,36.94
2023-03-15T03:31:01.024Z,37.30
2023-03-15T03:31:32.428Z,37.33
2023-03-15T03:32:03.840Z,36.88
2023-03-15T03:32:35.294Z,37.34
2023-03-15T03:33:06.758Z,37.54
2023-03-15T03:33:38.159Z,36.94
2023-03-15T03:34:09.584Z,37.32
2023-03-15T03:34:40.989Z,37.21
2023-03-15T03:35:14.074Z,37.35
2023-03-15T03:35:47.034Z,37.20
2023-03-15T03:36:18.461Z,37.26
2023-03-15T03:36:49.874Z,37.02
2023-03-15T03:37:21.277Z,37.42
2023-03-15T03:37:52.700Z,37.19
2023-03-15T03:38:24.156Z,37.03
2023-03-15T03:38:55.551Z,37.48
2023-03-15T03:39:26.936Z,37.26
2023-03-15T03:39:58.370Z,37.09
2023-03-15T03:40:29.785Z,37.07
2023-03-15T03:41:01.208Z,37.39
2023-03-15T03:41:32.609Z,36.93
2023-03-15T03:42:04.040Z,36.94
2023-03-15T03:42:35.436Z,36.88
2023-03-15T03:43:06.835Z,37.18
2023-03-15T03:43:38.243Z,37.07
2023-03-15T03:44:09.661Z,37.19
2023-03-15T03:44:41.055Z,37.02
2023-03-15T03:45:12.442Z,36.89
2023-03-15T03:45:43.899Z,37.21
2023-03-15T03:46:15.391Z,37.01
2023-03-15T03:46:46.810Z,37.32
2023-03-15T03:47:18.221Z,37.07
2023-03-15T03:47:49.646Z,37.15
2023-03-15T03:48:21.046Z,36.99
2023-03-15T03:48:52.451Z,37.18
2023-03-15T03:49:23.873Z,37.20
2023-03-15T03:49:55.293Z,37.44
2023-03-15T03:50:26.698Z,36.95
2023-03-15T03:50:58.131Z,37.24
2023-03-15T03:51:29.576Z,37.09
2023-03-15T03:52:00.978Z,37.29
2023-03-15T03:52:32.376Z,36.95
2023-03-15T03:53:03.816Z,37.20
2023-03-15T03:53:35.230Z,36.97
2023-03-15T03:54:06.632Z,37.25
2023-03-15T03:54:38.083Z,37.23
2023-03-15T03:55:09.476Z,36.99
2023-03-15T03:55:40.884Z,36.91
2023-03-15T03:56:12.299Z,37.39
2023-03-15T03:56:43.763Z,37.40
2023-03-15T03:57:15.161Z,37.01
2023-03-15T03:57:46.555Z,36.95
2023-03-15T03:58:17.962Z,37.17
2023-03-15T03:58:49.382Z,36.70
2023-03-15T03:59:20.800Z,36.86
2023-03-15T03:59:52.192Z,37.28
2023-03-15T04:00:23.584Z,37.32
2023-03-15T04:00:55.001Z,36.94
2023-03-15T04:01:26.414Z,37.30
2023-03-15T04:01:58.008Z,37.42
2023-03-15T04:02:29.482Z,36.98
2023-03-15T04:03:00.951Z,37.44
2023-03-15T04:03:32.380Z,37.51
2023-03-15T04:04:03.788Z,37.28
2023-03-15T04:04:35.235Z,37.11
2023-03-15T04:05:06.747Z,37.39
2023-03-15T04:05:38.163Z,37.39
2023-03-15T04:06:09.585Z,37.11
2023-03-15T04:06:40.990Z,37.57
2023-03-15T04:07:12.448Z,36.92
2023-03-15T04:07:43.849Z,37.15
2023-03-15T04:08:15.269Z,36.99
2023-03-15T04:08:46.675Z,37.42
2023-03-15T04:09:18.084Z,36.93
2023-03-15T04:09:49.471Z,37.37
2023-03-15T04:10:20.893Z,37.37
2023-03-15T04:10:52.315Z,36.89
2023-03-15T04:11:23.707Z,37.14
2023-03-15T04:11:55.098Z,37.21
2023-03-15T04:12:26.574Z,36.98
2023-03-15T04:12:57.999Z,37.21
2023-03-15T04:13:29.401Z,36.93
2023-03-15T04:14:00.796Z,36.98
2023-03-15T04:14:32.216Z,37.23
2023-03-15T04:15:03.621Z,37.46
2023-03-15T04:15:35.047Z,37.54
2023-03-15T04:16:06.506Z,37.37
2023-03-15T04:16:37.907Z,37.22
2023-03-15T04:17:09.305Z,36.83
2023-03-15T04:17:40.708Z,37.41
2023-03-15T04:18:12.109Z,37.14
2023-03-15T04:18:43.503Z,36.93
2023-03-15T04:19:14.906Z,37.05
2023-03-15T04:19:46.309Z,37.06
2023-03-15T04:20:17.724Z,37.08
2023-03-15T04:20:49.148Z,37.33
2023-03-15T04:21:20.562Z,37.20
2023-03-15T04:21:51.974Z,37.39
2023-03-15T04:22:23.369Z,36.92
2023-03-15T04:22:54.841Z,37.00
2023-03-15T04:23:26.251Z,36.87
2023-03-15T04:23:57.659Z,37.42
2023-03-15T04:24:29.066Z,36.96
2023-03-15T04:25:00.480Z,37.14
2023-03-15T04:25:31.922Z,37.37
2023-03-15T04:26:03.308Z,36.96
2023-03-15T04:26:34.761Z,37.32
2023-03-15T04:27:06.169Z,36.87
2023-03-15T04:27:37.563Z,37.02
2023-03-15T04:28:08.991Z,37.12
2023-03-15T04:28:40.387Z,37.03
2023-03-15T04:29:11.797Z,37.17
2023-03-15T04:29:43.199Z,37.20
2023-03-15T04:30:14.622Z,37.02
2023-03-15T04:30:46.051Z,37.19
2023-03-15T04:31:17.549Z,37.36
2023-03-15T04:31:48.977Z,37.32
2023-03-15T04:32:20.389Z,37.07
2023-03-15T04:32:51.815Z,37.04
2023-03-15T04:33:23.240Z,37.07
2023-03-15T04:33:54.657Z,37.07
2023-03-15T04:34:26.074Z,37.21
2023-03-15T04:34:57.514Z,37.28
2023-03-15T04:35:28.920Z,36.80
2023-03-15T04:36:00.335Z,37.41
2023-03-15T04:36:31.763Z,36.94
2023-03-15T04:37:03.152Z,37.09
2023-03-15T04:37:34.555Z,37.17
2023-03-15T04:38:05.986Z,37.18
2023-03-15T04:38:37.439Z,37.10
2023-03-15T04:39:08.854Z,36.89
2023-03-15T04:39:40.263Z,37.29
2023-03-15T04:40:11.676Z,37.06
2023-03-15T04:40:43.081Z,36.83
2023-03-15T04:41:14.476Z,37.16
2023-03-15T04:41:45.873Z,37.02
2023-03-15T04:42:17.274Z,37.00
2023-03-15T04:42:48.726Z,37.19
2023-03-15T04:43:20.148Z,36.90
2023-03-15T04:43:51.576Z,36.67
2023-03-15T04:44:22.972Z,36.77
2023-03-15T04:44:54.387Z,36.87
2023-03-15T04:45:25.804Z,36.82
2023-03-15T04:45:57.214Z,37.32
2023-03-15T04:46:28.673Z,37.04
2023-03-15T04:47:00.170Z,37.16
2023-03-15T04:47:31.643Z,36.94
2023-03-15T04:48:03.052Z,36.95
2023-03-15T04:48:34.464Z,37.19
2023-03-15T04:49:05.909Z,36.96
2023-03-15T04:49:37.305Z,36.61
2023-03-15T04:50:08.711Z,37.10
2023-03-15T04:50:40.111Z,36.97
2023-03-15T04:51:11.533Z,36.84
2023-03-15T04:51:42.938Z,36.79
2023-03-15T04:52:14.339Z,36.95
2023-03-15T04:52:45.773Z,36.48
2023-03-15T04:53:17.194Z,37.19
2023-03-15T04:53:48.613Z,36.69
2023-03-15T04:54:20.047Z,37.14
2023-03-15T04:54:51.447Z,36.76
2023-03-15T04:55:22.843Z,36.81
2023-03-15T04:55:54.244Z,37.17
2023-03-15T04:56:25.666Z,36.48
2023-03-15T04:56:57.084Z,37.03
2023-03-15T04:57:28.472Z,36.88
2023-03-15T04:57:59.886Z,36.91
2023-03-15T04:58:31.279Z,36.72
2023-03-15T04:59:02.678Z,37.24
2023-03-15T04:59:34.106Z,37.03
2023-03-15T05:00:05.497Z,36.65
2023-03-15T05:00:36.924Z,36.40
2023-03-15T05:01:08.347Z,36.90
2023-03-15T05:01:39.819Z,37.11
2023-03-15T05:02:11.311Z,36.66
2023-03-15T05:02:42.867Z,36.88
2023-03-15T05:03:14.286Z,36.69
2023-03-15T05:03:45.691Z,36.65
2023-03-15T05:04:17.080Z,37.17
2023-03-15T05:04:48.501Z,37.03
2023-03-15T05:05:19.891Z,37.31
2023-03-15T05:05:51.308Z,36.98
2023-03-15T05:06:22.740Z,36.90
2023-03-15T05:06:54.150Z,37.00
2023-03-15T05:07:25.544Z,37.18
2023-03-15T05:07:56.978Z,37.24
2023-03-15T05:08:28.396Z,36.96
2023-03-15T05:08:59.786Z,37.05
2023-03-15T05:09:31.180Z,36.63
2023-03-15T05:10:02.613Z,37.13
2023-03-15T05:10:34.035Z,37.12
2023-03-15T05:11:05.474Z,36.76
2023-03-15T05:11:36.930Z,36.75
2023-03-15T05:12:08.364Z,36.91
2023-03-15T05:12:39.788Z,37.01
2023-03-15T05:13:11.238Z,36.86
2023-03-15T05:13:42.646Z,36.80
2023-03-15T05:14:14.079Z,37.09
2023-03-15T05:14:45.516Z,36.88
2023-03-15T05:15:17.072Z,36.81
2023-03-15T05:15:48.539Z,37.09
2023-03-15T05:16:19.965Z,36.86
2023-03-15T05:16:51.374Z,36.96
2023-03-15T05:17:22.767Z,37.19
2023-03-15T05:17:54.229Z,36.62
2023-03-15T05:18:25.639Z,36.80
2023-03-15T05:18:57.054Z,36.86
2023-03-15T05:19:28.542Z,36.94
2023-03-15T05:19:59.952Z,36.80
2023-03-15T05:20:31.371Z,37.13
2023-03-15T05:21:02.766Z,36.84
2023-03-15T05:21:34.156Z,36.83
2023-03-15T05:22:05.563Z,36.50
2023-03-15T05:22:36.957Z,36.81
2023-03-15T05:23:08.406Z,37.06
2023-03-15T05:23:39.805Z,36.66
2023-03-15T05:24:11.225Z,36.80
2023-03-15T05:24:42.619Z,36.75
2023-03-15T05:25:14.091Z,37.16
2023-03-15T05:25:45.540Z,36.44
2023-03-15T05:26:16.959Z,36.88
2023-03-15T05:26:48.361Z,36.58
2023-03-15T05:27:19.789Z,36.62
2023-03-15T05:27:51.200Z,36.74
2023-03-15T05:28:22.618Z,36.76
2023-03-15T05:28:54.012Z,37.06
2023-03-15T05:29:25.430Z,36.93
2023-03-15T05:29:56.845Z,36.62
2023-03-15T05:30:28.254Z,37.01
2023-03-15T05:31:00.741Z,36.94
2023-03-15T05:31:32.253Z,36.95
2023-03-15T05:32:03.750Z,36.26
2023-03-15T05:32:35.286Z,36.81
2023-03-15T05:33:06.789Z,36.55
2023-03-15T05:33:38.220Z,36.60
2023-03-15T05:34:09.614Z,36.56
2023-03-15T05:34:41.027Z,36.37
2023-03-15T05:35:12.427Z,36.79
2023-03-15T05:35:43.839Z,36.77
2023-03-15T05:36:15.335Z,36.33
2023-03-15T05:36:46.766Z,36.82
2023-03-15T05:37:18.183Z,36.30
2023-03-15T05:37:49.584Z,36.75
2023-03-15T05:38:21.022Z,36.56
2023-03-15T05:38:52.424Z,36.29
2023-03-15T05:39:23.851Z,36.18
2023-03-15T05:39:55.264Z,36.06
2023-03-15T05:40:26.657Z,36.32
2023-03-15T05:40:58.073Z,36.67
2023-03-15T05:41:29.489Z,36.11
2023-03-15T05:42:00.900Z,36.29
2023-03-15T05:42:32.291Z,36.40
2023-03-15T05:43:03.690Z,36.23
2023-03-15T05:43:35.127Z,36.18
2023-03-15T05:44:06.540Z,36.41
2023-03-15T05:44:37.932Z,36.17
2023-03-15T05:45:09.354Z,36.47
2023-03-15T05:45:40.807Z,36.16
2023-03-15T05:46:12.316Z,36.71
2023-03-15T05:46:43.813Z,36.11
2023-03-15T05:47:15.238Z,36.12
2023-03-15T05:47:46.657Z,36.59
2023-03-15T05:48:18.116Z,35.99
2023-03-15T05:48:49.532Z,36.67
2023-03-15T05:49:20.948Z,36.33
2023-03-15T05:49:52.371Z,36.37
2023-03-15T05:50:23.791Z,36.17
2023-03-15T05:50:55.206Z,36.31
2023-03-15T05:51:26.627Z,36.07
2023-03-15T05:51:58.038Z,36.55
2023-03-15T05:52:29.430Z,36.33
2023-03-15T05:53:00.820Z,36.06
2023-03-15T05:53:32.250Z,35.98
2023-03-15T05:54:03.680Z,36.25
2023-03-15T05:54:35.074Z,36.24
2023-03-15T05:55:06.501Z,35.91
2023-03-15T05:55:37.910Z,35.92
2023-03-15T05:56:09.307Z,36.52
2023-03-15T05:56:40.764Z,36.48
2023-03-15T05:57:12.316Z,36.17
2023-03-15T05:57:43.746Z,36.31
2023-03-15T05:58:15.136Z,36.15
2023-03-15T05:58:46.530Z,36.11
2023-03-15T05:59:18.297Z,36.56
2023-03-15T05:59:49.715Z,36.33
2023-03-15T06:00:21.135Z,36.13
2023-03-15T06:00:52.549Z,36.03
2023-03-15T06:01:23.963Z,36.60
2023-03-15T06:01:55.370Z,36.22
2023-03-15T06:02:26.802Z,36.43
2023-03-15T06:02:58.269Z,36.44
2023-03-15T06:03:29.817Z,36.03
2023-03-15T06:04:01.545Z,36.44
2023-03-15T06:04:33.146Z,36.28
2023-03-15T06:05:04.643Z,36.27
2023-03-15T06:05:36.055Z,36.52
2023-03-15T06:06:07.469Z,36.19
2023-03-15T06:06:38.882Z,36.28
2023-03-15T06:07:10.268Z,36.27
2023-03-15T06:07:41.704Z,36.35
2023-03-15T06:08:13.120Z,36.28
2023-03-15T06:08:44.542Z,36.10
2023-03-15T06:09:15.948Z,36.21
2023-03-15T06:09:47.367Z,35.94
2023-03-15T06:10:18.794Z,35.94
2023-03-15T06:10:50.186Z,36.03
2023-03-15T06:11:21.596Z,36.69
2023-03-15T06:11:52.987Z,36.13
2023-03-15T06:12:24.394Z,36.01
2023-03-15T06:12:55.833Z,36.26
2023-03-15T06:13:27.267Z,36.41
2023-03-15T06:13:58.679Z,36.11
2023-03-15T06:14:30.097Z,35.91
2023-03-15T06:15:01.521Z,36.03
2023-03-15T06:15:32.993Z,36.32
2023-03-15T06:16:04.396Z,36.22
2023-03-15T06:16:35.833Z,36.07
2023-03-15T06:17:07.295Z,36.23
2023-03-15T06:17:38.693Z,36.32
2023-03-15T06:18:10.123Z,36.00
2023-03-15T06:18:41.544Z,36.50
2023-03-15T06:19:12.953Z,36.31
2023-03-15T06:19:44.354Z,36.64
2023-03-15T06:20:15.894Z,36.29
2023-03-15T06:20:47.608Z,36.21
2023-03-15T06:21:19.462Z,36.25
2023-03-15T06:21:51.081Z,35.99
2023-03-15T06:22:22.907Z,36.50
2023-03-15T06:22:54.545Z,36.24
2023-03-15T06:23:25.959Z,36.63
2023-03-15T06:23:57.382Z,35.99
2023-03-15T06:24:28.802Z,36.23
2023-03-15T06:25:00.224Z,36.34
2023-03-15T06:25:31.649Z,36.52
2023-03-15T06:26:03.042Z,36.30
2023-03-15T06:26:34.457Z,36.48
2023-03-15T06:27:05.856Z,36.03
2023-03-15T06:27:37.285Z,36.21
2023-03-15T06:28:08.687Z,36.13
2023-03-15T06:28:40.076Z,36.48
2023-03-15T06:29:11.540Z,36.03
2023-03-15T06:29:42.983Z,36.15
2023-03-15T06:30:16.629Z,36.06
2023-03-15T06:30:48.574Z,36.37
2023-03-15T06:31:20.088Z,36.01
2023-03-15T06:31:51.533Z,36.11
2023-03-15T06:32:23.075Z,36.58
2023-03-15T06:32:54.553Z,36.32
2023-03-15T06:33:25.970Z,36.45
2023-03-15T06:33:57.373Z,36.36
2023-03-15T06:34:28.770Z,36.38
2023-03-15T06:35:00.198Z,36.18
2023-03-15T06:35:31.668Z,36.40
2023-03-15T06:36:03.182Z,36.15
2023-03-15T06:36:34.651Z,36.32
2023-03-15T06:37:06.054Z,36.35
2023-03-15T06:37:37.455Z,35.97
2023-03-15T06:38:10.970Z,35.97
2023-03-15T06:38:43.197Z,36.19
2023-03-15T06:39:14.602Z,36.15
2023-03-15T06:39:46.026Z,36.36
2023-03-15T06:40:17.435Z,36.42
2023-03-15T06:40:48.847Z,36.21
2023-03-15T06:41:20.256Z,36.25
2023-03-15T06:41:51.659Z,36.54
2023-03-15T06:42:23.055Z,36.13
2023-03-15T06:42:54.486Z,36.28
2023-03-15T06:43:25.912Z,36.08
2023-03-15T06:43:57.317Z,36.25
2023-03-15T06:44:28.723Z,36.18
2023-03-15T06:45:00.164Z,36.59